createdAt,value
2023-01-12T00:00:07.974Z,998.28
2023-01-12T00:01:07.869Z,998.31
2023-01-12T00:02:07.977Z,998.32
2023-01-12T00:03:07.870Z,998.30
2023-01-12T00:04:07.918Z,998.24
2023-01-12T00:05:07.851Z,998.24
2023-01-12T00:06:07.824Z,998.27
2023-01-12T00:07:07.801Z,998.34
2023-01-12T00:08:07.800Z,998.44
2023-01-12T00:09:07.785Z,998.38
2023-01-12T00:10:07.815Z,998.24
2023-01-12T00:11:07.763Z,998.28
2023-01-12T00:12:07.774Z,998.19
2023-01-12T00:13:08.656Z,998.24
2023-01-12T00:14:07.738Z,998.25
2023-01-12T00:15:07.747Z,998.20
2023-01-12T00:16:07.841Z,998.35
2023-01-12T00:17:07.697Z,998.27
2023-01-12T00:18:07.710Z,998.22
2023-01-12T00:19:07.683Z,998.20
2023-01-12T00:20:07.670Z,998.17
2023-01-12T00:21:07.659Z,998.13
2023-01-12T00:22:07.670Z,998.17
2023-01-12T00:23:07.649Z,998.23
2023-01-12T00:24:07.633Z,998.22
2023-01-12T00:25:07.610Z,998.38
2023-01-12T00:26:07.602Z,998.22
2023-01-12T00:27:07.625Z,998.29
2023-01-12T00:28:07.628Z,998.29
2023-01-12T00:29:07.565Z,998.25
2023-01-12T00:30:07.564Z,998.27
2023-01-12T00:31:07.603Z,998.26
2023-01-12T00:32:07.559Z,998.30
2023-01-12T00:33:07.527Z,998.26
2023-01-12T00:34:07.566Z,998.29
2023-01-12T00:35:07.501Z,998.30
2023-01-12T00:36:07.508Z,998.19
2023-01-12T00:37:07.499Z,998.22
2023-01-12T00:38:07.498Z,998.24
2023-01-12T00:39:07.463Z,998.24
2023-01-12T00:40:07.504Z,998.30
2023-01-12T00:41:07.458Z,998.27
2023-01-12T00:42:07.433Z,998.25
2023-01-12T00:43:07.415Z,998.26
2023-01-12T00:44:07.429Z,998.31
2023-01-12T00:45:07.400Z,998.28
2023-01-12T00:46:07.483Z,998.28
2023-01-12T00:47:07.397Z,998.23
2023-01-12T00:48:07.373Z,998.32
2023-01-12T00:49:07.355Z,998.27
2023-01-12T00:50:07.348Z,998.32
2023-01-12T00:51:07.351Z,998.35
2023-01-12T00:52:08.522Z,998.31
2023-01-12T00:53:07.309Z,998.40
2023-01-12T00:54:07.302Z,998.32
2023-01-12T00:55:07.295Z,998.36
2023-01-12T00:56:07.307Z,998.42
2023-01-12T00:57:07.268Z,998.37
2023-01-12T00:58:07.291Z,998.28
2023-01-12T00:59:07.263Z,998.33
2023-01-12T01:00:07.326Z,998.31
2023-01-12T01:01:07.377Z,998.32
2023-01-12T01:02:07.232Z,998.32
2023-01-12T01:03:07.209Z,998.31
2023-01-12T01:04:07.254Z,998.36
2023-01-12T01:05:07.183Z,998.30
2023-01-12T01:06:07.198Z,998.33
2023-01-12T01:07:07.160Z,998.31
2023-01-12T01:08:07.168Z,998.33
2023-01-12T01:09:07.144Z,998.30
2023-01-12T01:10:07.160Z,998.27
2023-01-12T01:11:07.123Z,998.26
2023-01-12T01:12:07.112Z,998.22
2023-01-12T01:13:07.125Z,998.24
2023-01-12T01:14:07.112Z,998.31
2023-01-12T01:15:07.077Z,998.27
2023-01-12T01:16:07.208Z,998.21
2023-01-12T01:17:07.063Z,998.10
2023-01-12T01:18:07.048Z,998.16
2023-01-12T01:19:07.049Z,998.19
2023-01-12T01:20:07.028Z,998.21
2023-01-12T01:21:07.063Z,998.16
2023-01-12T01:22:06.994Z,998.14
2023-01-12T01:23:07.012Z,998.16
2023-01-12T01:24:06.997Z,998.17
2023-01-12T01:25:06.973Z,998.13
2023-01-12T01:26:06.975Z,998.17
2023-01-12T01:27:06.975Z,998.11
2023-01-12T01:28:06.947Z,998.22
2023-01-12T01:29:06.924Z,998.19
2023-01-12T01:30:06.915Z,998.22
2023-01-12T01:31:06.960Z,998.20
2023-01-12T01:32:06.916Z,998.19
2023-01-12T01:33:06.906Z,998.24
2023-01-12T01:34:06.876Z,998.22
2023-01-12T01:35:06.879Z,998.22
2023-01-12T01:36:06.850Z,998.29
2023-01-12T01:37:06.855Z,998.27
2023-01-12T01:38:06.832Z,998.26
2023-01-12T01:39:06.877Z,998.23
2023-01-12T01:40:06.812Z,998.24
2023-01-12T01:41:06.801Z,998.21
2023-01-12T01:42:06.813Z,998.19
2023-01-12T01:43:06.781Z,998.18
2023-01-12T01:44:06.764Z,998.12
2023-01-12T01:45:06.761Z,998.20
2023-01-12T01:46:06.804Z,998.18
2023-01-12T01:47:06.747Z,998.21
2023-01-12T01:48:06.757Z,998.11
2023-01-12T01:49:06.713Z,998.13
2023-01-12T01:50:06.717Z,998.13
2023-01-12T01:51:06.692Z,998.12
2023-01-12T01:52:06.718Z,998.10
2023-01-12T01:53:06.682Z,998.08
2023-01-12T01:54:06.657Z,998.08
2023-01-12T01:55:06.660Z,998.08
2023-01-12T01:56:06.658Z,998.05
2023-01-12T01:57:06.623Z,998.00
2023-01-12T01:58:06.625Z,998.03
2023-01-12T01:59:06.605Z,997.93
2023-01-12T02:00:06.588Z,997.99
2023-01-12T02:01:06.673Z,998.01
2023-01-12T02:02:06.649Z,997.97
2023-01-12T02:03:06.623Z,997.98
2023-01-12T02:04:06.591Z,997.94
2023-01-12T02:05:06.548Z,997.97
2023-01-12T02:06:06.547Z,997.92
2023-01-12T02:07:06.526Z,997.91
2023-01-12T02:08:06.512Z,997.87
2023-01-12T02:09:06.502Z,997.83
2023-01-12T02:10:06.522Z,997.84
2023-01-12T02:11:06.473Z,997.82
2023-01-12T02:12:06.479Z,997.82
2023-01-12T02:13:06.457Z,997.79
2023-01-12T02:14:06.449Z,997.79
2023-01-12T02:15:06.439Z,997.77
2023-01-12T02:16:06.483Z,997.82
2023-01-12T02:17:06.431Z,997.80
2023-01-12T02:18:06.410Z,997.75
2023-01-12T02:19:06.396Z,997.77
2023-01-12T02:20:06.401Z,997.81
2023-01-12T02:21:06.376Z,997.77
2023-01-12T02:22:06.377Z,997.77
2023-01-12T02:23:06.361Z,997.77
2023-01-12T02:24:06.368Z,997.74
2023-01-12T02:25:06.330Z,997.75
2023-01-12T02:26:06.317Z,997.75
2023-01-12T02:27:06.335Z,997.74
2023-01-12T02:28:06.340Z,997.67
2023-01-12T02:29:06.313Z,997.72
2023-01-12T02:30:06.269Z,997.70
2023-01-12T02:31:06.352Z,997.70
2023-01-12T02:32:06.255Z,997.70
2023-01-12T02:33:06.242Z,997.67
2023-01-12T02:34:06.258Z,997.61
2023-01-12T02:35:06.245Z,997.58
2023-01-12T02:36:06.231Z,997.59
2023-01-12T02:37:06.221Z,997.57
2023-01-12T02:38:06.200Z,997.60
2023-01-12T02:39:06.182Z,997.62
2023-01-12T02:40:06.215Z,997.55
2023-01-12T02:41:06.162Z,997.63
2023-01-12T02:42:06.158Z,997.61
2023-01-12T02:43:06.146Z,997.59
2023-01-12T02:44:06.126Z,997.60
2023-01-12T02:45:06.130Z,997.53
2023-01-12T02:46:06.121Z,997.57
2023-01-12T02:47:06.087Z,997.58
2023-01-12T02:48:06.112Z,997.50
2023-01-12T02:49:06.101Z,997.44
2023-01-12T02:50:06.062Z,997.49
2023-01-12T02:51:06.050Z,997.42
2023-01-12T02:52:06.105Z,997.39
2023-01-12T02:53:06.023Z,997.43
2023-01-12T02:54:06.031Z,997.42
2023-01-12T02:55:06.001Z,997.34
2023-01-12T02:56:06.016Z,997.30
2023-01-12T02:57:06.017Z,997.31
2023-01-12T02:58:05.975Z,997.29
2023-01-12T02:59:05.994Z,997.32
2023-01-12T03:00:05.956Z,997.33
2023-01-12T03:01:06.087Z,997.30
2023-01-12T03:02:05.965Z,997.33
2023-01-12T03:03:06.026Z,997.27
2023-01-12T03:04:05.918Z,997.26
2023-01-12T03:05:05.906Z,997.24
2023-01-12T03:06:05.916Z,997.24
2023-01-12T03:07:05.897Z,997.24
2023-01-12T03:08:05.878Z,997.22
2023-01-12T03:09:05.875Z,997.23
2023-01-12T03:10:05.853Z,997.19
2023-01-12T03:11:05.878Z,997.27
2023-01-12T03:12:05.848Z,997.29
2023-01-12T03:13:05.817Z,997.28
2023-01-12T03:14:05.802Z,997.17
2023-01-12T03:15:05.791Z,997.19
2023-01-12T03:16:05.869Z,997.21
2023-01-12T03:17:05.779Z,997.12
2023-01-12T03:18:05.762Z,997.11
2023-01-12T03:19:05.777Z,997.15
2023-01-12T03:20:05.739Z,997.07
2023-01-12T03:21:05.726Z,997.13
2023-01-12T03:22:05.719Z,997.12
2023-01-12T03:23:05.705Z,997.10
2023-01-12T03:24:05.795Z,997.14
2023-01-12T03:25:05.685Z,997.09
2023-01-12T03:26:05.672Z,997.02
2023-01-12T03:27:05.662Z,997.04
2023-01-12T03:28:05.651Z,997.00
2023-01-12T03:29:05.662Z,997.02
2023-01-12T03:30:05.637Z,996.92
2023-01-12T03:31:05.679Z,997.00
2023-01-12T03:32:05.613Z,996.94
2023-01-12T03:33:05.608Z,997.00
2023-01-12T03:34:05.580Z,996.98
2023-01-12T03:35:05.582Z,996.86
2023-01-12T03:36:05.560Z,996.92
2023-01-12T03:37:05.553Z,996.85
2023-01-12T03:38:05.570Z,996.85
2023-01-12T03:39:05.555Z,996.83
2023-01-12T03:40:05.545Z,996.82
2023-01-12T03:41:05.521Z,996.80
2023-01-12T03:42:05.516Z,996.77
2023-01-12T03:43:05.489Z,996.89
2023-01-12T03:44:05.495Z,996.88
2023-01-12T03:45:05.483Z,996.85
2023-01-12T03:46:05.477Z,996.90
2023-01-12T03:47:05.540Z,996.87
2023-01-12T03:48:05.448Z,996.95
2023-01-12T03:49:05.459Z,996.90
2023-01-12T03:50:05.423Z,996.85
2023-01-12T03:51:05.406Z,996.87
2023-01-12T03:52:05.393Z,996.81
2023-01-12T03:53:05.399Z,996.86
2023-01-12T03:54:05.403Z,996.80
2023-01-12T03:55:05.355Z,996.85
2023-01-12T03:56:05.386Z,996.77
2023-01-12T03:57:05.341Z,996.74
2023-01-12T03:58:05.326Z,996.70
2023-01-12T03:59:05.332Z,996.59
2023-01-12T04:00:05.321Z,996.63
2023-01-12T04:01:05.414Z,996.69
2023-01-12T04:02:05.303Z,996.70
2023-01-12T04:03:05.287Z,996.70
2023-01-12T04:04:05.263Z,996.72
2023-01-12T04:05:05.261Z,996.69
2023-01-12T04:06:05.265Z,996.61
2023-01-12T04:07:05.237Z,996.68
2023-01-12T04:08:05.266Z,996.68
2023-01-12T04:09:05.217Z,996.77
2023-01-12T04:10:05.199Z,996.69
2023-01-12T04:11:05.205Z,996.64
2023-01-12T04:12:05.236Z,996.71
2023-01-12T04:13:05.165Z,996.68
2023-01-12T04:14:05.168Z,996.65
2023-01-12T04:15:05.145Z,996.72
2023-01-12T04:16:05.150Z,996.68
2023-01-12T04:17:05.128Z,996.63
2023-01-12T04:18:05.150Z,996.64
2023-01-12T04:19:05.121Z,996.62
2023-01-12T04:20:05.105Z,996.63
2023-01-12T04:21:05.090Z,996.51
2023-01-12T04:22:05.063Z,996.57
2023-01-12T04:23:05.053Z,996.62
2023-01-12T04:24:05.094Z,996.60
2023-01-12T04:25:05.053Z,996.46
2023-01-12T04:26:05.026Z,996.52
2023-01-12T04:27:05.026Z,996.40
2023-01-12T04:28:05.013Z,996.46
2023-01-12T04:29:04.994Z,996.41
2023-01-12T04:30:05.021Z,996.36
2023-01-12T04:31:04.983Z,996.44
2023-01-12T04:32:04.982Z,996.38
2023-01-12T04:33:04.951Z,996.29
2023-01-12T04:34:04.948Z,996.31
2023-01-12T04:35:05.024Z,996.26
2023-01-12T04:36:04.920Z,996.32
2023-01-12T04:37:04.913Z,996.27
2023-01-12T04:38:04.893Z,996.29
2023-01-12T04:39:04.904Z,996.21
2023-01-12T04:40:04.875Z,996.24
2023-01-12T04:41:04.907Z,996.27
2023-01-12T04:42:04.853Z,996.19
2023-01-12T04:43:07.349Z,996.21
2023-01-12T04:44:04.923Z,996.12
2023-01-12T04:45:04.819Z,996.13
2023-01-12T04:46:04.894Z,996.08
2023-01-12T04:47:04.830Z,996.03
2023-01-12T04:48:04.793Z,996.10
2023-01-12T04:49:04.785Z,996.00
2023-01-12T04:50:04.766Z,995.95
2023-01-12T04:51:04.756Z,995.88
2023-01-12T04:52:04.746Z,995.91
2023-01-12T04:53:04.845Z,995.92
2023-01-12T04:54:04.725Z,995.88
2023-01-12T04:55:04.712Z,995.86
2023-01-12T04:56:04.741Z,995.87
2023-01-12T04:57:04.720Z,995.95
2023-01-12T04:58:04.698Z,995.86
2023-01-12T04:59:04.707Z,995.93
2023-01-12T05:00:04.702Z,995.91
2023-01-12T05:01:04.679Z,995.85
2023-01-12T05:02:04.740Z,995.84
2023-01-12T05:03:04.655Z,995.89
2023-01-12T05:04:06.915Z,995.84
2023-01-12T05:05:04.641Z,995.74
2023-01-12T05:06:04.594Z,995.80
2023-01-12T05:07:04.589Z,995.74
2023-01-12T05:08:04.571Z,995.76
2023-01-12T05:09:04.564Z,995.75
2023-01-12T05:10:04.571Z,995.65
2023-01-12T05:11:04.552Z,995.62
2023-01-12T05:12:04.531Z,995.67
2023-01-12T05:13:04.538Z,995.66
2023-01-12T05:14:04.507Z,995.66
2023-01-12T05:15:04.516Z,995.64
2023-01-12T05:16:04.563Z,995.65
2023-01-12T05:17:04.500Z,995.57
2023-01-12T05:18:04.478Z,995.58
2023-01-12T05:19:04.453Z,995.55
2023-01-12T05:20:04.444Z,995.52
2023-01-12T05:21:04.455Z,995.52
2023-01-12T05:22:04.420Z,995.39
2023-01-12T05:23:04.437Z,995.48
2023-01-12T05:24:04.430Z,995.39
2023-01-12T05:25:04.403Z,995.35
2023-01-12T05:26:04.405Z,995.24
2023-01-12T05:27:04.367Z,995.27
2023-01-12T05:28:04.380Z,995.24
2023-01-12T05:29:04.388Z,995.29
2023-01-12T05:30:04.347Z,995.25
2023-01-12T05:31:04.385Z,995.26
2023-01-12T05:32:04.397Z,995.27
2023-01-12T05:33:04.319Z,995.25
2023-01-12T05:34:04.311Z,995.28
2023-01-12T05:35:04.322Z,995.37
2023-01-12T05:36:04.291Z,995.32
2023-01-12T05:37:04.272Z,995.36
2023-01-12T05:38:04.256Z,995.26
2023-01-12T05:39:04.243Z,995.28
2023-01-12T05:40:04.239Z,995.28
2023-01-12T05:41:04.275Z,995.23
2023-01-12T05:42:04.224Z,995.17
2023-01-12T05:43:04.212Z,995.17
2023-01-12T05:44:04.195Z,995.20
2023-01-12T05:45:04.182Z,995.14
2023-01-12T05:46:04.190Z,995.14
2023-01-12T05:47:04.197Z,995.17
2023-01-12T05:48:04.186Z,995.14
2023-01-12T05:49:04.155Z,995.11
2023-01-12T05:50:04.125Z,995.09
2023-01-12T05:51:04.114Z,995.04
2023-01-12T05:52:04.119Z,995.05
2023-01-12T05:53:04.137Z,995.12
2023-01-12T05:54:04.094Z,995.03
2023-01-12T05:55:04.079Z,994.90
2023-01-12T05:56:04.059Z,994.91
2023-01-12T05:57:04.060Z,994.90
2023-01-12T05:58:04.046Z,994.91
2023-01-12T05:59:04.069Z,994.86
2023-01-12T06:00:04.024Z,994.81
2023-01-12T06:01:04.017Z,994.82
2023-01-12T06:02:04.085Z,994.79
2023-01-12T06:03:03.984Z,994.74
2023-01-12T06:04:04.010Z,994.77
2023-01-12T06:05:04.011Z,994.75
2023-01-12T06:06:03.957Z,994.68
2023-01-12T06:07:03.943Z,994.63
2023-01-12T06:08:03.935Z,994.63
2023-01-12T06:09:03.919Z,994.50
2023-01-12T06:10:03.955Z,994.53
2023-01-12T06:11:03.939Z,994.45
2023-01-12T06:12:03.889Z,994.47
2023-01-12T06:13:03.881Z,994.44
2023-01-12T06:14:03.866Z,994.47
2023-01-12T06:15:03.864Z,994.45
2023-01-12T06:16:03.911Z,994.39
2023-01-12T06:17:03.890Z,994.49
2023-01-12T06:18:03.843Z,994.40
2023-01-12T06:19:03.826Z,994.33
2023-01-12T06:20:03.825Z,994.42
2023-01-12T06:21:03.805Z,994.37
2023-01-12T06:22:03.805Z,994.31
2023-01-12T06:23:03.779Z,994.38
2023-01-12T06:24:03.763Z,994.44
2023-01-12T06:25:03.753Z,994.40
2023-01-12T06:26:03.751Z,994.37
2023-01-12T06:27:03.740Z,994.34
2023-01-12T06:28:03.733Z,994.39
2023-01-12T06:29:03.734Z,994.38
2023-01-12T06:30:03.695Z,994.44
2023-01-12T06:31:03.794Z,994.44
2023-01-12T06:32:03.690Z,994.47
2023-01-12T06:33:03.677Z,994.43
2023-01-12T06:34:03.652Z,994.50
2023-01-12T06:35:14.242Z,994.41
2023-01-12T06:36:04.686Z,994.54
2023-01-12T06:37:03.623Z,994.45
2023-01-12T06:38:03.612Z,994.43
2023-01-12T06:39:03.621Z,994.53
2023-01-12T06:40:03.597Z,994.54
2023-01-12T06:41:03.644Z,994.48
2023-01-12T06:42:03.569Z,994.52
2023-01-12T06:43:03.554Z,994.62
2023-01-12T06:44:03.543Z,994.44
2023-01-12T06:45:03.531Z,994.52
2023-01-12T06:46:03.576Z,994.46
2023-01-12T06:47:03.547Z,994.45
2023-01-12T06:48:03.517Z,994.49
2023-01-12T06:49:03.496Z,994.51
2023-01-12T06:50:03.488Z,994.48
2023-01-12T06:51:03.471Z,994.51
2023-01-12T06:52:03.554Z,994.47
2023-01-12T06:53:03.496Z,994.47
2023-01-12T06:54:03.444Z,994.45
2023-01-12T06:55:03.429Z,994.44
2023-01-12T06:56:03.432Z,994.44
2023-01-12T06:57:03.420Z,994.40
2023-01-12T06:58:03.401Z,994.37
2023-01-12T06:59:03.403Z,994.40
2023-01-12T07:00:03.390Z,994.39
2023-01-12T07:01:03.442Z,994.31
2023-01-12T07:02:03.463Z,994.35
2023-01-12T07:03:03.340Z,994.36
2023-01-12T07:04:03.397Z,994.30
2023-01-12T07:05:03.331Z,994.31
2023-01-12T07:06:03.327Z,994.34
2023-01-12T07:07:03.310Z,994.31
2023-01-12T07:08:03.315Z,994.25
2023-01-12T07:09:03.279Z,994.23
2023-01-12T07:10:03.277Z,994.19
2023-01-12T07:11:03.315Z,994.34
2023-01-12T07:12:03.261Z,994.32
2023-01-12T07:13:03.251Z,994.34
2023-01-12T07:14:03.241Z,994.29
2023-01-12T07:15:03.216Z,994.31
2023-01-12T07:16:03.254Z,994.38
2023-01-12T07:17:03.240Z,994.32
2023-01-12T07:18:03.218Z,994.30
2023-01-12T07:19:03.168Z,994.31
2023-01-12T07:20:03.211Z,994.21
2023-01-12T07:21:03.150Z,994.19
2023-01-12T07:22:03.146Z,994.25
2023-01-12T07:23:03.195Z,994.18
2023-01-12T07:24:03.139Z,994.05
2023-01-12T07:25:03.116Z,994.16
2023-01-12T07:26:03.093Z,994.29
2023-01-12T07:27:03.097Z,994.18
2023-01-12T07:28:03.087Z,994.18
2023-01-12T07:29:03.129Z,994.21
2023-01-12T07:30:03.051Z,994.25
2023-01-12T07:31:03.157Z,994.20
2023-01-12T07:32:03.037Z,994.19
2023-01-12T07:33:03.026Z,994.27
2023-01-12T07:34:03.040Z,994.29
2023-01-12T07:35:03.036Z,994.25
2023-01-12T07:36:03.022Z,994.26
2023-01-12T07:37:02.987Z,994.28
2023-01-12T07:38:02.977Z,994.27
2023-01-12T07:39:02.986Z,994.33
2023-01-12T07:40:02.967Z,994.32
2023-01-12T07:41:02.985Z,994.30
2023-01-12T07:42:02.934Z,994.27
2023-01-12T07:43:02.915Z,994.30
2023-01-12T07:44:02.922Z,994.36
2023-01-12T07:45:02.915Z,994.27
2023-01-12T07:46:02.908Z,994.27
2023-01-12T07:47:02.904Z,994.23
2023-01-12T07:48:02.878Z,994.19
2023-01-12T07:49:02.852Z,994.15
2023-01-12T07:50:02.842Z,994.18
2023-01-12T07:51:02.835Z,994.27
2023-01-12T07:52:02.817Z,994.21
2023-01-12T07:53:02.835Z,994.25
2023-01-12T07:54:02.796Z,994.26
2023-01-12T07:55:02.788Z,994.18
2023-01-12T07:56:02.810Z,994.17
2023-01-12T07:57:02.776Z,994.18
2023-01-12T07:58:02.763Z,994.24
2023-01-12T07:59:02.767Z,994.13
2023-01-12T08:00:02.746Z,994.26
2023-01-12T08:01:02.765Z,994.11
2023-01-12T08:02:02.805Z,994.23
2023-01-12T08:03:02.704Z,994.13
2023-01-12T08:04:02.690Z,994.19
2023-01-12T08:05:02.708Z,994.15
2023-01-12T08:06:02.671Z,994.18
2023-01-12T08:07:02.658Z,994.12
2023-01-12T08:08:03.566Z,994.19
2023-01-12T08:09:02.635Z,994.16
2023-01-12T08:10:02.643Z,994.14
2023-01-12T08:11:02.655Z,994.05
2023-01-12T08:12:02.732Z,994.16
2023-01-12T08:13:02.611Z,994.15
2023-01-12T08:14:02.586Z,994.07
2023-01-12T08:15:02.569Z,994.08
2023-01-12T08:16:02.604Z,993.99
2023-01-12T08:17:02.587Z,994.15
2023-01-12T08:18:04.998Z,994.14
2023-01-12T08:19:02.528Z,994.07
2023-01-12T08:20:02.515Z,994.11
2023-01-12T08:21:02.504Z,994.14
2023-01-12T08:22:02.501Z,994.19
2023-01-12T08:23:02.518Z,994.17
2023-01-12T08:24:02.495Z,994.18
2023-01-12T08:25:02.468Z,994.20
2023-01-12T08:26:02.467Z,994.13
2023-01-12T08:27:02.456Z,994.16
2023-01-12T08:28:02.459Z,994.22
2023-01-12T08:29:02.467Z,994.23
2023-01-12T08:30:02.451Z,994.16
2023-01-12T08:31:02.464Z,994.17
2023-01-12T08:32:04.441Z,994.20
2023-01-12T08:33:02.375Z,994.17
2023-01-12T08:34:02.385Z,994.14
2023-01-12T08:35:02.397Z,994.16
2023-01-12T08:36:02.343Z,994.22
2023-01-12T08:37:02.348Z,994.14
2023-01-12T08:38:02.334Z,994.11
2023-01-12T08:39:02.310Z,994.14
2023-01-12T08:40:02.301Z,994.05
2023-01-12T08:41:02.322Z,994.14
2023-01-12T08:42:02.280Z,994.19
2023-01-12T08:43:02.275Z,994.14
2023-01-12T08:44:02.296Z,994.14
2023-01-12T08:45:02.280Z,994.18
2023-01-12T08:46:02.235Z,994.20
2023-01-12T08:47:02.250Z,994.19
2023-01-12T08:48:02.214Z,994.16
2023-01-12T08:49:02.223Z,994.13
2023-01-12T08:50:02.235Z,994.14
2023-01-12T08:51:02.185Z,994.19
2023-01-12T08:52:02.187Z,994.06
2023-01-12T08:53:02.230Z,994.16
2023-01-12T08:54:02.158Z,994.11
2023-01-12T08:55:02.212Z,994.21
2023-01-12T08:56:02.133Z,994.17
2023-01-12T08:57:02.112Z,994.24
2023-01-12T08:58:02.155Z,994.19
2023-01-12T08:59:02.136Z,994.19
2023-01-12T09:00:02.103Z,994.13
2023-01-12T09:01:02.236Z,994.19
2023-01-12T09:02:02.137Z,994.18
2023-01-12T09:03:02.054Z,994.14
2023-01-12T09:04:02.049Z,994.18
2023-01-12T09:05:02.070Z,994.29
2023-01-12T09:06:02.020Z,994.16
2023-01-12T09:07:02.025Z,994.23
2023-01-12T09:08:02.008Z,994.15
2023-01-12T09:09:01.981Z,994.20
2023-01-12T09:10:01.977Z,994.13
2023-01-12T09:11:02.019Z,994.13
2023-01-12T09:12:01.969Z,994.16
2023-01-12T09:13:02.021Z,994.22
2023-01-12T09:14:01.963Z,994.21
2023-01-12T09:15:01.965Z,994.18
2023-01-12T09:16:12.207Z,994.22
2023-01-12T09:17:02.999Z,994.31
2023-01-12T09:18:01.910Z,994.25
2023-01-12T09:19:01.906Z,994.28
2023-01-12T09:20:01.886Z,994.33
2023-01-12T09:21:01.870Z,994.21
2023-01-12T09:22:01.867Z,994.33
2023-01-12T09:23:01.834Z,994.33
2023-01-12T09:24:01.851Z,994.34
2023-01-12T09:25:01.822Z,994.35
2023-01-12T09:26:01.826Z,994.29
2023-01-12T09:27:01.824Z,994.29
2023-01-12T09:28:01.803Z,994.27
2023-01-12T09:29:01.775Z,994.35
2023-01-12T09:30:01.766Z,994.34
2023-01-12T09:31:01.762Z,994.36
2023-01-12T09:32:01.849Z,994.43
2023-01-12T09:33:01.746Z,994.45
2023-01-12T09:34:01.725Z,994.42
2023-01-12T09:35:01.726Z,994.40
2023-01-12T09:36:01.713Z,994.42
2023-01-12T09:37:01.703Z,994.48
2023-01-12T09:38:01.686Z,994.58
2023-01-12T09:39:01.667Z,994.49
2023-01-12T09:40:01.666Z,994.60
2023-01-12T09:41:02.467Z,994.46
2023-01-12T09:42:01.638Z,994.59
2023-01-12T09:43:01.647Z,994.59
2023-01-12T09:44:01.619Z,994.66
2023-01-12T09:45:01.602Z,994.61
2023-01-12T09:46:01.666Z,994.65
2023-01-12T09:47:01.591Z,994.66
2023-01-12T09:48:01.611Z,994.68
2023-01-12T09:49:01.595Z,994.72
2023-01-12T09:50:08.792Z,994.67
2023-01-12T09:51:02.533Z,994.68
2023-01-12T09:52:01.532Z,994.75
2023-01-12T09:53:01.554Z,994.76
2023-01-12T09:54:01.523Z,994.58
2023-01-12T09:55:01.549Z,994.84
2023-01-12T09:56:01.536Z,994.71
2023-01-12T09:57:01.513Z,994.70
2023-01-12T09:58:01.491Z,994.70
2023-01-12T09:59:01.467Z,994.71
2023-01-12T10:00:01.441Z,994.68
2023-01-12T10:01:01.486Z,994.61
2023-01-12T10:02:01.632Z,994.70
2023-01-12T10:03:01.523Z,994.72
2023-01-12T10:04:01.417Z,994.84
2023-01-12T10:05:01.414Z,994.67
2023-01-12T10:06:01.382Z,994.66
2023-01-12T10:07:01.392Z,994.62
2023-01-12T10:08:01.367Z,994.66
2023-01-12T10:09:01.364Z,994.65
2023-01-12T10:10:01.325Z,994.69
2023-01-12T10:11:01.345Z,994.65
2023-01-12T10:12:01.334Z,994.68
2023-01-12T10:13:01.306Z,994.73
2023-01-12T10:14:01.304Z,994.69
2023-01-12T10:15:01.289Z,994.64
2023-01-12T10:16:01.315Z,994.70
2023-01-12T10:17:01.279Z,994.69
2023-01-12T10:18:01.286Z,994.70
2023-01-12T10:19:01.247Z,994.69
2023-01-12T10:20:01.253Z,994.68
2023-01-12T10:21:01.226Z,994.68
2023-01-12T10:22:01.203Z,994.71
2023-01-12T10:23:01.191Z,994.65
2023-01-12T10:24:01.179Z,994.69
2023-01-12T10:25:01.214Z,994.66
2023-01-12T10:26:01.188Z,994.61
2023-01-12T10:27:01.177Z,994.56
2023-01-12T10:28:01.140Z,994.60
2023-01-12T10:29:01.133Z,994.65
2023-01-12T10:30:01.161Z,994.58
2023-01-12T10:31:01.122Z,994.60
2023-01-12T10:32:01.194Z,994.58
2023-01-12T10:33:01.079Z,994.62
2023-01-12T10:34:01.077Z,994.58
2023-01-12T10:35:01.083Z,994.58
2023-01-12T10:36:01.084Z,994.58
2023-01-12T10:37:01.045Z,994.58
2023-01-12T10:38:01.045Z,994.52
2023-01-12T10:39:01.082Z,994.52
2023-01-12T10:40:01.002Z,994.51
2023-01-12T10:41:00.994Z,994.54
2023-01-12T10:42:01.007Z,994.56
2023-01-12T10:43:04.156Z,994.60
2023-01-12T10:44:01.979Z,994.51
2023-01-12T10:45:00.957Z,994.48
2023-01-12T10:46:00.982Z,994.53
2023-01-12T10:47:00.931Z,994.47
2023-01-12T10:48:00.922Z,994.49
2023-01-12T10:49:00.911Z,994.50
2023-01-12T10:50:00.937Z,994.51
2023-01-12T10:51:00.897Z,994.48
2023-01-12T10:52:00.977Z,994.54
2023-01-12T10:53:00.878Z,994.55
2023-01-12T10:54:00.854Z,994.59
2023-01-12T10:55:00.849Z,994.51
2023-01-12T10:56:00.848Z,994.59
2023-01-12T10:57:00.828Z,994.48
2023-01-12T10:58:00.838Z,994.55
2023-01-12T10:59:00.824Z,994.45
2023-01-12T11:00:00.789Z,994.47
2023-01-12T11:01:00.928Z,994.50
2023-01-12T11:02:01.035Z,994.40
2023-01-12T11:03:00.861Z,994.57
2023-01-12T11:04:00.762Z,994.47
2023-01-12T11:05:00.739Z,994.54
2023-01-12T11:06:00.720Z,994.54
2023-01-12T11:07:02.239Z,994.52
2023-01-12T11:08:00.763Z,994.56
2023-01-12T11:09:00.700Z,994.61
2023-01-12T11:10:00.676Z,994.61
2023-01-12T11:11:00.685Z,994.54
2023-01-12T11:12:00.669Z,994.48
2023-01-12T11:13:00.676Z,994.54
2023-01-12T11:14:00.647Z,994.51
2023-01-12T11:15:00.667Z,994.48
2023-01-12T11:16:00.624Z,994.55
2023-01-12T11:17:00.608Z,994.54
2023-01-12T11:18:00.593Z,994.54
2023-01-12T11:19:00.605Z,994.50
2023-01-12T11:20:00.581Z,994.36
2023-01-12T11:21:00.577Z,994.48
2023-01-12T11:22:00.549Z,994.54
2023-01-12T11:23:00.539Z,994.50
2023-01-12T11:24:00.579Z,994.46
2023-01-12T11:25:00.525Z,994.46
2023-01-12T11:26:00.528Z,994.48
2023-01-12T11:27:00.507Z,994.53
2023-01-12T11:28:00.509Z,994.50
2023-01-12T11:29:00.481Z,994.60
2023-01-12T11:30:00.485Z,994.54
2023-01-12T11:31:00.631Z,994.42
2023-01-12T11:32:00.461Z,994.45
2023-01-12T11:33:00.450Z,994.52
2023-01-12T11:34:00.415Z,994.41
2023-01-12T11:35:00.437Z,994.53
2023-01-12T11:36:00.396Z,994.45
2023-01-12T11:37:00.417Z,994.52
2023-01-12T11:38:00.374Z,994.66
2023-01-12T11:39:00.394Z,994.54
2023-01-12T11:40:00.375Z,994.50
2023-01-12T11:41:00.399Z,994.47
2023-01-12T11:42:00.333Z,994.48
2023-01-12T11:43:00.347Z,994.58
2023-01-12T11:44:00.313Z,994.55
2023-01-12T11:45:00.303Z,994.46
2023-01-12T11:46:00.359Z,994.51
2023-01-12T11:47:00.314Z,994.52
2023-01-12T11:48:00.265Z,994.51
2023-01-12T11:49:00.259Z,994.47
2023-01-12T11:50:00.267Z,994.48
2023-01-12T11:51:00.247Z,994.43
2023-01-12T11:52:00.219Z,994.48
2023-01-12T11:53:00.232Z,994.40
2023-01-12T11:54:00.204Z,994.33
2023-01-12T11:55:00.227Z,994.34
2023-01-12T11:56:00.197Z,994.34
2023-01-12T11:57:00.172Z,994.44
2023-01-12T11:58:00.163Z,994.30
2023-01-12T11:59:00.176Z,994.30
2023-01-12T12:00:00.148Z,994.28
2023-01-12T12:01:00.240Z,994.26
2023-01-12T12:02:00.187Z,994.31
2023-01-12T12:03:00.132Z,994.23
2023-01-12T12:04:00.186Z,994.13
2023-01-12T12:05:00.087Z,994.41
2023-01-12T12:06:00.132Z,994.14
2023-01-12T12:07:00.103Z,994.14
2023-01-12T12:08:00.067Z,994.31
2023-01-12T12:09:00.094Z,994.26
2023-01-12T12:10:00.040Z,994.30
2023-01-12T12:11:00.020Z,994.31
2023-01-12T12:12:00.033Z,994.29
2023-01-12T12:12:59.999Z,994.24
2023-01-12T12:14:00.009Z,994.14
2023-01-12T12:14:59.983Z,994.27
2023-01-12T12:16:00.017Z,994.20
2023-01-12T12:16:59.980Z,994.15
2023-01-12T12:17:59.939Z,994.12
2023-01-12T12:18:59.948Z,994.24
2023-01-12T12:19:59.931Z,994.16
2023-01-12T12:20:59.921Z,994.11
2023-01-12T12:21:59.902Z,994.13
2023-01-12T12:22:59.940Z,994.15
2023-01-12T12:23:59.910Z,994.12
2023-01-12T12:24:59.865Z,994.13
2023-01-12T12:25:59.861Z,994.16
2023-01-12T12:26:59.862Z,994.05
2023-01-12T12:27:59.889Z,994.09